Time,TemperatureF,DewpointF,PressureIn,WindDirection,WindDirectionDegrees,WindSpeedMPH,WindSpeedGustMPH,Humidity,HourlyPrecipIn,Conditions,Clouds,dailyrainin,SoftwareType,DateUTC
2013-07-29 00:02:00,80.5,69.8,29.84,SE,138,10.0,10.0,70,0.00,,SKC,0.00,VWS V14.01,2013-07-29 05:02:00,
2013-07-29 00:07:00,80.3,69.6,29.84,ESE,123,6.0,11.0,70,0.00,,SKC,0.00,VWS V14.01,2013-07-29 05:07:00,
2013-07-29 00:12:00,80.2,69.9,29.84,SSE,159,1.0,3.0,71,0.00,,SKC,0.00,VWS V14.01,2013-07-29 05:12:00,
2013-07-29 00:17:00,80.0,69.8,29.85,SE,138,9.0,10.0,71,0.00,,SKC,0.00,VWS V14.01,2013-07-29 05:17:00,
2013-07-29 00:22:00,79.8,70.0,29.84,SSE,162,4.0,5.0,72,0.00,,SKC,0.00,VWS V14.01,2013-07-29 05:22:00,
2013-07-29 00:27:00,79.7,69.9,29.84,SSE,168,7.0,7.0,72,0.00,,SKC,0.00,VWS V14.01,2013-07-29 05:27:00,
2013-07-29 00:32:00,79.5,70.1,29.84,SE,138,3.0,6.0,73,0.00,,SKC,0.00,VWS V14.01,2013-07-29 05:32:00,
2013-07-29 00:37:00,79.3,69.9,29.85,SSE,165,6.0,9.0,73,0.00,,SKC,0.00,VWS V14.01,2013-07-29 05:37:00,
2013-07-29 00:42:00,79.2,70.2,29.85,SSE,162,5.0,5.0,74,0.00,,SKC,0.00,VWS V14.01,2013-07-29 05:42:00,
2013-07-29 00:47:00,79.1,70.5,29.85,SSE,165,6.0,6.0,75,0.00,,SKC,0.00,VWS V14.01,2013-07-29 05:47:00,
2013-07-29 00:52:00,78.8,70.2,29.85,SSE,165,6.0,7.0,75,0.00,,SKC,0.00,VWS V14.01,2013-07-29 05:52:00,
2013-07-29 00:57:00,78.7,70.5,29.85,SE,142,5.0,5.0,76,0.00,,SKC,0.00,VWS V14.01,2013-07-29 05:57:00,
2013-07-29 01:02:00,78.5,70.3,29.86,South,178,4.0,6.0,76,0.00,,SKC,0.00,VWS V14.01,2013-07-29 06:02:00,
2013-07-29 01:07:00,78.3,70.5,29.85,SE,136,6.0,9.0,77,0.00,,SKC,0.00,VWS V14.01,2013-07-29 06:07:00,
2013-07-29 01:12:00,78.3,70.9,29.85,SE,142,11.0,12.0,78,0.00,,SKC,0.00,VWS V14.01,2013-07-29 06:12:00,
2013-07-29 01:17:00,78.1,70.7,29.85,SSE,161,10.0,12.0,78,0.00,,SKC,0.00,VWS V14.01,2013-07-29 06:17:00,
2013-07-29 01:22:00,78.0,71.0,29.85,SSE,161,6.0,8.0,79,0.00,,SKC,0.00,VWS V14.01,2013-07-29 06:22:00,
2013-07-29 01:27:00,77.8,70.8,29.85,SE,142,4.0,9.0,79,0.00,,SKC,0.00,VWS V14.01,2013-07-29 06:27:00,
2013-07-29 01:32:00,77.6,70.6,29.86,SE,145,9.0,11.0,79,0.00,,SKC,0.00,VWS V14.01,2013-07-29 06:32:00,
2013-07-29 01:37:00,77.4,70.4,29.86,South,178,5.0,9.0,79,0.00,,SKC,0.00,VWS V14.01,2013-07-29 06:37:00,
2013-07-29 01:42:00,77.3,70.7,29.85,South,175,5.0,6.0,80,0.00,,SKC,0.00,VWS V14.01,2013-07-29 06:42:00,
2013-07-29 01:47:00,77.1,70.5,29.85,South,174,9.0,13.0,80,0.00,,SKC,0.00,VWS V14.01,2013-07-29 06:47:00,
2013-07-29 01:52:00,77.1,70.5,29.85,SSE,148,8.0,9.0,80,0.00,,SKC,0.00,VWS V14.01,2013-07-29 06:52:00,
2013-07-29 01:57:00,76.9,70.3,29.85,South,169,10.0,10.0,80,0.00,,SKC,0.00,VWS V14.01,2013-07-29 06:57:00,
2013-07-29 02:02:00,76.8,70.5,29.85,SE,132,7.0,7.0,81,0.00,,SKC,0.00,VWS V14.01,2013-07-29 07:02:00,
2013-07-29 02:07:00,76.6,70.3,29.85,SSE,150,7.0,12.0,81,0.00,,SKC,0.00,VWS V14.01,2013-07-29 07:07:00,
2013-07-29 02:12:00,76.4,70.5,29.86,SSE,166,6.0,8.0,82,0.00,,SKC,0.00,VWS V14.01,2013-07-29 07:12:00,
2013-07-29 02:17:00,76.3,70.4,29.85,SSE,167,13.0,14.0,82,0.00,,SKC,0.00,VWS V14.01,2013-07-29 07:17:00,
2013-07-29 02:22:00,76.2,70.7,29.85,SE,136,6.0,13.0,83,0.00,,SKC,0.00,VWS V14.01,2013-07-29 07:22:00,
2013-07-29 02:27:00,76.0,70.5,29.85,South,169,8.0,15.0,83,0.00,,SKC,0.00,VWS V14.01,2013-07-29 07:27:00,
2013-07-29 02:32:00,76.0,70.5,29.85,South,179,4.0,12.0,83,0.00,,SKC,0.00,VWS V14.01,2013-07-29 07:32:00,
2013-07-29 02:37:00,75.8,70.3,29.85,SSE,164,7.0,14.0,83,0.00,,SKC,0.00,VWS V14.01,2013-07-29 07:37:00,
2013-07-29 02:42:00,75.7,70.5,29.85,SSE,167,5.0,9.0,84,0.00,,SKC,0.00,VWS V14.01,2013-07-29 07:42:00,
2013-07-29 02:47:00,75.7,70.5,29.85,South,178,5.0,7.0,84,0.00,,SKC,0.00,VWS V14.01,2013-07-29 07:47:00,
2013-07-29 02:52:00,75.7,70.5,29.85,SSE,161,5.0,10.0,84,0.00,,SKC,0.00,VWS V14.01,2013-07-29 07:52:00,
2013-07-29 02:57:00,75.8,70.6,29.85,South,178,5.0,12.0,84,0.00,,SKC,0.00,VWS V14.01,2013-07-29 07:57:00,
2013-07-29 03:02:00,75.8,70.6,29.86,South,182,11.0,11.0,84,0.00,,SKC,0.00,VWS V14.01,2013-07-29 08:02:00,
2013-07-29 03:07:00,75.8,70.6,29.85,SSE,168,9.0,11.0,84,0.00,,SKC,0.00,VWS V14.01,2013-07-29 08:07:00,
2013-07-29 03:12:00,75.8,70.6,29.86,SSE,168,4.0,12.0,84,0.00,,SKC,0.00,VWS V14.01,2013-07-29 08:12:00,
2013-07-29 03:17:00,75.8,70.6,29.86,SSW,193,6.0,10.0,84,0.00,,SKC,0.00,VWS V14.01,2013-07-29 08:17:00,
2013-07-29 03:22:00,75.9,70.7,29.86,South,185,7.0,11.0,84,0.00,,SKC,0.00,VWS V14.01,2013-07-29 08:22:00,
2013-07-29 03:27:00,76.0,70.5,29.85,South,176,12.0,17.0,83,0.00,,SKC,0.00,VWS V14.01,2013-07-29 08:27:00,
2013-07-29 03:32:00,76.1,70.6,29.85,SSE,152,6.0,9.0,83,0.00,,SKC,0.00,VWS V14.01,2013-07-29 08:32:00,
2013-07-29 03:37:00,76.2,70.7,29.86,SSE,161,6.0,17.0,83,0.00,,SKC,0.00,VWS V14.01,2013-07-29 08:37:00,
2013-07-29 03:42:00,76.2,70.7,29.85,SSE,150,5.0,9.0,83,0.00,,SKC,0.00,VWS V14.01,2013-07-29 08:42:00,
2013-07-29 03:47:00,76.2,70.7,29.86,SSW,194,12.0,16.0,83,0.00,,SKC,0.00,VWS V14.01,2013-07-29 08:47:00,
2013-07-29 03:52:00,76.2,70.7,29.85,SSE,168,4.0,6.0,83,0.00,,SKC,0.00,VWS V14.01,2013-07-29 08:52:00,
2013-07-29 03:57:00,76.1,70.6,29.85,South,188,10.0,14.0,83,0.00,,SKC,0.00,VWS V14.01,2013-07-29 08:57:00,
2013-07-29 04:02:00,76.0,70.5,29.85,South,178,6.0,12.0,83,0.00,,SKC,0.00,VWS V14.01,2013-07-29 09:02:00,
2013-07-29 04:07:00,75.9,70.4,29.86,South,188,9.0,13.0,83,0.00,,SKC,0.00,VWS V14.01,2013-07-29 09:07:00,
2013-07-29 04:12:00,75.9,70.4,29.85,SSE,149,8.0,13.0,83,0.00,,SKC,0.00,VWS V14.01,2013-07-29 09:12:00,
2013-07-29 04:17:00,75.9,70.4,29.86,SSE,168,13.0,13.0,83,0.00,,SKC,0.00,VWS V14.01,2013-07-29 09:17:00,
2013-07-29 04:22:00,75.8,70.3,29.86,SE,146,12.0,12.0,83,0.00,,SKC,0.00,VWS V14.01,2013-07-29 09:22:00,
2013-07-29 04:27:00,75.8,70.3,29.85,SE,136,6.0,7.0,83,0.00,,SKC,0.00,VWS V14.01,2013-07-29 09:27:00,
2013-07-29 04:32:00,75.8,70.6,29.85,South,179,8.0,15.0,84,0.00,,SKC,0.00,VWS V14.01,2013-07-29 09:32:00,
2013-07-29 04:37:00,75.7,70.5,29.86,SE,136,9.0,9.0,84,0.00,,SKC,0.00,VWS V14.01,2013-07-29 09:37:00,
2013-07-29 04:42:00,75.6,70.4,29.86,South,173,15.0,15.0,84,0.00,,SKC,0.00,VWS V14.01,2013-07-29 09:42:00,
2013-07-29 04:47:00,75.5,70.3,29.86,South,171,5.0,13.0,84,0.00,,SKC,0.00,VWS V14.01,2013-07-29 09:47:00,
2013-07-29 04:52:00,75.3,70.1,29.86,South,184,13.0,15.0,84,0.00,,SKC,0.00,VWS V14.01,2013-07-29 09:52:00,
2013-07-29 04:57:00,75.2,69.7,29.86,South,175,8.0,14.0,83,0.00,,SKC,0.00,VWS V14.01,2013-07-29 09:57:00,
2013-07-29 05:02:00,75.1,69.6,29.86,SSE,161,7.0,12.0,83,0.00,,SKC,0.00,VWS V14.01,2013-07-29 10:02:00,
2013-07-29 05:07:00,75.0,69.5,29.86,SSE,167,5.0,11.0,83,0.00,,SKC,0.00,VWS V14.01,2013-07-29 10:07:00,
2013-07-29 05:12:00,74.9,69.7,29.86,SSE,161,10.0,13.0,84,0.00,,SKC,0.00,VWS V14.01,2013-07-29 10:12:00,
2013-07-29 05:18:00,74.8,69.7,29.86,SSE,158,10.0,10.0,84,0.00,,SKC,0.00,VWS V14.01,2013-07-29 10:18:00,
2013-07-29 05:23:00,74.8,70.0,29.86,South,186,11.0,11.0,85,0.00,,SKC,0.00,VWS V14.01,2013-07-29 10:23:00,
2013-07-29 05:28:00,74.7,69.9,29.86,South,184,7.0,10.0,85,0.00,,SKC,0.00,VWS V14.01,2013-07-29 10:28:00,
2013-07-29 05:32:00,74.6,69.4,29.86,SE,146,5.0,12.0,84,0.00,,SKC,0.00,VWS V14.01,2013-07-29 10:32:00,
2013-07-29 05:38:00,74.5,69.3,29.86,SSW,205,10.0,15.0,84,0.00,,SKC,0.00,VWS V14.01,2013-07-29 10:38:00,
2013-07-29 05:42:00,74.4,69.3,29.85,South,183,9.0,20.0,84,0.00,,SKC,0.00,VWS V14.01,2013-07-29 10:42:00,
2013-07-29 05:47:00,74.3,69.2,29.86,SSE,153,6.0,10.0,84,0.00,,SKC,0.00,VWS V14.01,2013-07-29 10:47:00,
2013-07-29 05:52:00,74.2,69.1,29.86,SSE,155,5.0,10.0,84,0.00,,SKC,0.00,VWS V14.01,2013-07-29 10:52:00,
2013-07-29 05:57:00,74.1,69.3,29.85,SSE,159,4.0,10.0,85,0.00,,SKC,0.00,VWS V14.01,2013-07-29 10:57:00,
2013-07-29 06:02:00,74.0,69.2,29.85,SSE,159,7.0,12.0,85,0.00,,SKC,0.00,VWS V14.01,2013-07-29 11:02:00,
2013-07-29 06:08:00,73.9,69.1,29.85,South,182,5.0,7.0,85,0.00,,SKC,0.00,VWS V14.01,2013-07-29 11:08:00,
2013-07-29 06:12:00,73.8,69.0,29.86,South,180,3.0,10.0,85,0.00,,SKC,0.00,VWS V14.01,2013-07-29 11:12:00,
2013-07-29 06:17:00,73.8,69.0,29.86,SSE,159,9.0,10.0,85,0.00,,SKC,0.00,VWS V14.01,2013-07-29 11:17:00,
2013-07-29 06:22:00,73.8,69.0,29.86,South,173,7.0,10.0,85,0.00,,SKC,0.00,VWS V14.01,2013-07-29 11:22:00,
2013-07-29 06:27:00,73.7,68.9,29.86,SSE,154,6.0,14.0,85,0.00,,SKC,0.00,VWS V14.01,2013-07-29 11:27:00,
2013-07-29 06:33:00,73.7,69.3,29.86,South,169,4.0,9.0,86,0.00,,SKC,0.00,VWS V14.01,2013-07-29 11:33:00,
2013-07-29 06:37:00,73.7,69.3,29.86,SSE,155,6.0,9.0,86,0.00,,SKC,0.00,VWS V14.01,2013-07-29 11:37:00,
2013-07-29 06:42:00,73.7,69.3,29.87,SSE,165,9.0,12.0,86,0.00,,SKC,0.00,VWS V14.01,2013-07-29 11:42:00,
2013-07-29 06:47:00,73.7,69.3,29.86,South,170,2.0,7.0,86,0.00,,SKC,0.00,VWS V14.01,2013-07-29 11:47:00,
2013-07-29 06:52:00,73.7,69.3,29.87,SSE,154,6.0,9.0,86,0.00,,SKC,0.00,VWS V14.01,2013-07-29 11:52:00,
2013-07-29 06:58:00,73.8,69.3,29.87,SSE,163,6.0,6.0,86,0.00,,SKC,0.00,VWS V14.01,2013-07-29 11:58:00,
2013-07-29 07:03:00,73.9,69.4,29.87,South,178,6.0,6.0,86,0.00,,SKC,0.00,VWS V14.01,2013-07-29 12:03:00,
2013-07-29 07:08:00,74.0,69.6,29.87,South,176,8.0,9.0,86,0.00,,SKC,0.00,VWS V14.01,2013-07-29 12:08:00,
2013-07-29 07:13:00,74.1,69.7,29.87,South,182,9.0,10.0,86,0.00,,SKC,0.00,VWS V14.01,2013-07-29 12:13:00,
2013-07-29 07:18:00,74.2,69.4,29.87,South,182,7.0,9.0,85,0.00,,SKC,0.00,VWS V14.01,2013-07-29 12:18:00,
2013-07-29 07:23:00,74.3,69.5,29.88,South,169,5.0,7.0,85,0.00,,SKC,0.00,VWS V14.01,2013-07-29 12:23:00,
2013-07-29 07:28:00,74.4,69.3,29.88,SSE,168,4.0,11.0,84,0.00,,SKC,0.00,VWS V14.01,2013-07-29 12:28:00,
2013-07-29 07:33:00,74.5,69.3,29.88,South,178,5.0,12.0,84,0.00,,SKC,0.00,VWS V14.01,2013-07-29 12:33:00,
2013-07-29 07:38:00,74.6,69.1,29.89,South,188,8.0,17.0,83,0.00,,SKC,0.00,VWS V14.01,2013-07-29 12:38:00,
2013-07-29 07:43:00,74.7,69.2,29.89,SSE,159,11.0,14.0,83,0.00,,SKC,0.00,VWS V14.01,2013-07-29 12:43:00,
2013-07-29 07:48:00,74.7,69.2,29.89,South,172,10.0,14.0,83,0.00,,SKC,0.00,VWS V14.01,2013-07-29 12:48:00,
2013-07-29 07:53:00,74.8,68.9,29.89,SSW,211,10.0,15.0,82,0.00,,SKC,0.00,VWS V14.01,2013-07-29 12:53:00,
2013-07-29 07:58:00,74.9,69.0,29.89,South,184,11.0,14.0,82,0.00,,SKC,0.00,VWS V14.01,2013-07-29 12:58:00,
2013-07-29 08:04:00,75.1,68.9,29.89,South,182,7.0,11.0,81,0.00,,SKC,0.00,VWS V14.01,2013-07-29 13:04:00,
2013-07-29 08:09:00,75.1,68.9,29.89,SSW,195,6.0,7.0,81,0.00,,SKC,0.00,VWS V14.01,2013-07-29 13:09:00,
2013-07-29 08:14:00,75.2,69.0,29.89,South,170,14.0,14.0,81,0.00,,SKC,0.00,VWS V14.01,2013-07-29 13:14:00,
2013-07-29 08:19:00,75.2,68.6,29.89,South,169,10.0,13.0,80,0.00,,SKC,0.00,VWS V14.01,2013-07-29 13:19:00,
2013-07-29 08:24:00,75.3,68.7,29.90,SSW,210,11.0,18.0,80,0.00,,SKC,0.00,VWS V14.01,2013-07-29 13:24:00,
2013-07-29 08:29:00,75.3,68.7,29.90,South,189,9.0,16.0,80,0.00,,SKC,0.00,VWS V14.01,2013-07-29 13:29:00,
2013-07-29 08:34:00,75.4,68.8,29.90,South,173,11.0,14.0,80,0.00,,SKC,0.00,VWS V14.01,2013-07-29 13:34:00,
2013-07-29 08:39:00,75.4,68.8,29.90,SSW,207,6.0,12.0,80,0.00,,SKC,0.00,VWS V14.01,2013-07-29 13:39:00,
2013-07-29 08:44:00,75.5,68.9,29.90,South,173,12.0,14.0,80,0.00,,SKC,0.00,VWS V14.01,2013-07-29 13:44:00,
2013-07-29 08:49:00,75.6,69.0,29.90,SSE,160,5.0,14.0,80,0.00,,SKC,0.00,VWS V14.01,2013-07-29 13:49:00,
2013-07-29 08:54:00,75.7,69.1,29.90,SSE,167,18.0,19.0,80,0.00,,SKC,0.00,VWS V14.01,2013-07-29 13:54:00,
2013-07-29 08:59:00,75.7,69.1,29.90,South,186,14.0,17.0,80,0.00,,SKC,0.00,VWS V14.01,2013-07-29 13:59:00,
2013-07-29 09:04:00,75.7,69.1,29.90,SSE,150,8.0,17.0,80,0.00,,SKC,0.00,VWS V14.01,2013-07-29 14:04:00,
2013-07-29 09:09:00,75.8,68.8,29.90,SSE,159,11.0,20.0,79,0.00,,SKC,0.00,VWS V14.01,2013-07-29 14:09:00,
2013-07-29 09:15:00,75.8,68.8,29.91,South,183,9.0,17.0,79,0.00,,SKC,0.00,VWS V14.01,2013-07-29 14:15:00,
2013-07-29 09:19:00,75.9,68.9,29.91,SSW,192,18.0,20.0,79,0.00,,SKC,0.00,VWS V14.01,2013-07-29 14:19:00,
2013-07-29 09:25:00,75.9,68.9,29.91,SSW,195,11.0,11.0,79,0.00,,SKC,0.00,VWS V14.01,2013-07-29 14:25:00,
2013-07-29 09:30:00,76.5,69.5,29.91,South,185,10.0,12.0,79,0.00,,SKC,0.00,VWS V14.01,2013-07-29 14:30:00,
2013-07-29 09:35:00,77.2,69.4,29.91,South,179,15.0,15.0,77,0.00,,SKC,0.00,VWS V14.01,2013-07-29 14:35:00,
2013-07-29 09:40:00,77.4,69.2,29.91,SSW,195,19.0,19.0,76,0.00,,SKC,0.00,VWS V14.01,2013-07-29 14:40:00,
2013-07-29 09:45:00,77.3,69.2,29.91,SSW,205,11.0,20.0,76,0.00,,SKC,0.00,VWS V14.01,2013-07-29 14:45:00,
2013-07-29 09:50:00,77.5,69.0,29.91,South,188,16.0,18.0,75,0.00,,SKC,0.00,VWS V14.01,2013-07-29 14:50:00,
2013-07-29 09:55:00,77.8,69.2,29.91,SSW,198,13.0,14.0,75,0.00,,SKC,0.00,VWS V14.01,2013-07-29 14:55:00,
2013-07-29 10:00:00,78.3,69.3,29.91,South,184,15.0,23.0,74,0.00,,SKC,0.00,VWS V14.01,2013-07-29 15:00:00,
2013-07-29 10:05:00,78.7,69.7,29.91,SSE,164,12.0,14.0,74,0.00,,SKC,0.00,VWS V14.01,2013-07-29 15:05:00,
2013-07-29 10:10:00,79.1,69.7,29.91,South,182,10.0,15.0,73,0.00,,SKC,0.00,VWS V14.01,2013-07-29 15:10:00,
2013-07-29 10:15:00,80.0,70.2,29.91,SSW,203,7.0,17.0,72,0.00,,SKC,0.00,VWS V14.01,2013-07-29 15:15:00,
2013-07-29 10:20:00,79.8,69.6,29.91,SSW,206,20.0,24.0,71,0.00,,SKC,0.00,VWS V14.01,2013-07-29 15:20:00,
2013-07-29 10:25:00,79.7,69.9,29.91,SSW,203,17.0,19.0,72,0.00,,SKC,0.00,VWS V14.01,2013-07-29 15:25:00,
2013-07-29 10:31:00,79.6,69.4,29.91,South,172,13.0,16.0,71,0.00,,SKC,0.00,VWS V14.01,2013-07-29 15:31:00,
2013-07-29 10:36:00,79.5,69.3,29.91,SSE,161,11.0,19.0,71,0.00,,SKC,0.00,VWS V14.01,2013-07-29 15:36:00,
2013-07-29 10:41:00,79.9,69.7,29.91,South,172,12.0,13.0,71,0.00,,SKC,0.00,VWS V14.01,2013-07-29 15:41:00,
2013-07-29 10:46:00,80.3,69.6,29.91,South,178,13.0,17.0,70,0.00,,SKC,0.00,VWS V14.01,2013-07-29 15:46:00,
2013-07-29 10:51:00,80.3,69.2,29.91,South,189,12.0,19.0,69,0.00,,SKC,0.00,VWS V14.01,2013-07-29 15:51:00,
2013-07-29 10:56:00,80.6,69.5,29.92,South,190,15.0,16.0,69,0.00,,SKC,0.00,VWS V14.01,2013-07-29 15:56:00,
2013-07-29 11:01:00,81.2,69.2,29.91,South,180,18.0,19.0,67,0.00,,SKC,0.00,VWS V14.01,2013-07-29 16:01:00,
2013-07-29 11:06:00,82.0,69.1,29.91,SW,217,10.0,20.0,65,0.00,,SKC,0.00,VWS V14.01,2013-07-29 16:06:00,
2013-07-29 11:12:00,82.6,68.3,29.91,SE,142,15.0,16.0,62,0.00,,SKC,0.00,VWS V14.01,2013-07-29 16:12:00,
2013-07-29 11:17:00,83.0,68.2,29.91,SSW,206,12.0,20.0,61,0.00,,SKC,0.00,VWS V14.01,2013-07-29 16:17:00,
2013-07-29 11:22:00,83.6,68.7,29.91,SSE,159,11.0,11.0,61,0.00,,SKC,0.00,VWS V14.01,2013-07-29 16:22:00,
2013-07-29 11:27:00,83.8,68.4,29.91,SSW,201,10.0,11.0,60,0.00,,SKC,0.00,VWS V14.01,2013-07-29 16:27:00,
2013-07-29 11:32:00,84.1,67.2,29.91,SSW,205,16.0,16.0,57,0.00,,SKC,0.00,VWS V14.01,2013-07-29 16:32:00,
2013-07-29 11:37:00,84.3,66.9,29.91,SSW,200,19.0,19.0,56,0.00,,SKC,0.00,VWS V14.01,2013-07-29 16:37:00,
2013-07-29 11:42:00,84.4,66.5,29.91,South,172,14.0,14.0,55,0.00,,SKC,0.00,VWS V14.01,2013-07-29 16:42:00,
2013-07-29 11:47:00,84.9,65.9,29.91,SSE,161,9.0,14.0,53,0.00,,SKC,0.00,VWS V14.01,2013-07-29 16:47:00,
2013-07-29 11:52:00,85.4,65.8,29.91,SSW,208,12.0,12.0,52,0.00,,SKC,0.00,VWS V14.01,2013-07-29 16:52:00,
2013-07-29 11:57:00,86.0,65.8,29.91,SSW,194,20.0,21.0,51,0.00,,SKC,0.00,VWS V14.01,2013-07-29 16:57:00,
2013-07-29 12:02:00,85.8,66.2,29.91,SSW,209,9.0,14.0,52,0.00,,SKC,0.00,VWS V14.01,2013-07-29 17:02:00,
2013-07-29 12:07:00,86.6,65.8,29.91,SSE,148,18.0,18.0,50,0.00,,SKC,0.00,VWS V14.01,2013-07-29 17:07:00,
2013-07-29 12:12:00,86.3,64.3,29.91,South,183,16.0,19.0,48,0.00,,SKC,0.00,VWS V14.01,2013-07-29 17:12:00,
2013-07-29 12:17:00,86.8,64.8,29.91,SSW,208,10.0,20.0,48,0.00,,SKC,0.00,VWS V14.01,2013-07-29 17:17:00,
2013-07-29 12:22:00,87.6,65.5,29.91,SSW,201,13.0,16.0,48,0.00,,SKC,0.00,VWS V14.01,2013-07-29 17:22:00,
2013-07-29 12:27:00,87.6,63.7,29.90,SSE,168,16.0,17.0,45,0.00,,SKC,0.00,VWS V14.01,2013-07-29 17:27:00,
2013-07-29 12:32:00,87.9,64.6,29.90,South,186,16.0,19.0,46,0.00,,SKC,0.00,VWS V14.01,2013-07-29 17:32:00,
2013-07-29 12:37:00,88.4,65.6,29.90,South,173,12.0,17.0,47,0.00,,SKC,0.00,VWS V14.01,2013-07-29 17:37:00,
2013-07-29 12:42:00,88.6,64.6,29.90,South,184,15.0,17.0,45,0.00,,SKC,0.00,VWS V14.01,2013-07-29 17:42:00,
2013-07-29 12:47:00,89.1,64.4,29.90,SSW,192,16.0,16.0,44,0.00,,SKC,0.00,VWS V14.01,2013-07-29 17:47:00,
2013-07-29 12:52:00,88.8,64.1,29.90,SSW,202,6.0,15.0,44,0.00,,SKC,0.00,VWS V14.01,2013-07-29 17:52:00,
2013-07-29 12:57:00,88.8,64.7,29.90,South,172,9.0,19.0,45,0.00,,SKC,0.00,VWS V14.01,2013-07-29 17:57:00,
2013-07-29 13:03:00,88.9,63.5,29.90,SSE,167,11.0,18.0,43,0.00,,SKC,0.00,VWS V14.01,2013-07-29 18:03:00,
2013-07-29 13:08:00,88.8,63.4,29.90,SSW,205,15.0,16.0,43,0.00,,SKC,0.00,VWS V14.01,2013-07-29 18:08:00,
2013-07-29 13:13:00,89.0,64.3,29.90,SSE,152,10.0,11.0,44,0.00,,SKC,0.00,VWS V14.01,2013-07-29 18:13:00,
2013-07-29 13:18:00,89.4,62.6,29.90,South,182,22.0,23.0,41,0.00,,SKC,0.00,VWS V14.01,2013-07-29 18:18:00,
2013-07-29 13:23:00,89.7,62.9,29.90,SSW,196,12.0,17.0,41,0.00,,SKC,0.00,VWS V14.01,2013-07-29 18:23:00,
2013-07-29 13:28:00,89.9,63.1,29.90,SSE,159,12.0,14.0,41,0.00,,SKC,0.00,VWS V14.01,2013-07-29 18:28:00,
2013-07-29 13:34:00,90.2,63.3,29.90,South,180,9.0,13.0,41,0.00,,SKC,0.00,VWS V14.01,2013-07-29 18:34:00,
2013-07-29 13:39:00,90.7,63.1,29.89,South,172,12.0,21.0,40,0.00,,SKC,0.00,VWS V14.01,2013-07-29 18:39:00,
2013-07-29 13:44:00,90.4,62.8,29.90,SSW,200,12.0,15.0,40,0.00,,SKC,0.00,VWS V14.01,2013-07-29 18:44:00,
2013-07-29 13:49:00,90.5,63.6,29.89,SSW,207,18.0,18.0,41,0.00,,SKC,0.00,VWS V14.01,2013-07-29 18:49:00,
2013-07-29 13:54:00,91.1,63.4,29.89,SSW,202,16.0,19.0,40,0.00,,SKC,0.00,VWS V14.01,2013-07-29 18:54:00,
2013-07-29 13:59:00,90.8,63.9,29.89,SSE,161,4.0,14.0,41,0.00,,SKC,0.00,VWS V14.01,2013-07-29 18:59:00,
2013-07-29 14:04:00,91.7,62.5,29.89,South,182,11.0,20.0,38,0.00,,SKC,0.00,VWS V14.01,2013-07-29 19:04:00,
2013-07-29 14:09:00,91.8,62.6,29.89,SSE,150,15.0,15.0,38,0.00,,SKC,0.00,VWS V14.01,2013-07-29 19:09:00,
2013-07-29 14:14:00,91.5,63.1,29.89,SSE,165,7.0,15.0,39,0.00,,SKC,0.00,VWS V14.01,2013-07-29 19:14:00,
2013-07-29 14:19:00,91.8,62.6,29.88,SSW,196,11.0,15.0,38,0.00,,SKC,0.00,VWS V14.01,2013-07-29 19:19:00,
2013-07-29 14:24:00,92.0,62.0,29.89,South,182,18.0,19.0,37,0.00,,SKC,0.00,VWS V14.01,2013-07-29 19:24:00,
2013-07-29 14:29:00,91.5,63.1,29.88,SSE,165,7.0,13.0,39,0.00,,SKC,0.00,VWS V14.01,2013-07-29 19:29:00,
2013-07-29 14:34:00,92.2,61.4,29.88,South,184,10.0,18.0,36,0.00,,SKC,0.00,VWS V14.01,2013-07-29 19:34:00,
2013-07-29 14:39:00,92.9,62.0,29.88,SSW,208,6.0,14.0,36,0.00,,SKC,0.00,VWS V14.01,2013-07-29 19:39:00,
2013-07-29 14:44:00,92.8,62.0,29.88,SSW,210,17.0,17.0,36,0.00,,SKC,0.00,VWS V14.01,2013-07-29 19:44:00,
2013-07-29 14:50:00,93.0,62.9,29.88,SSE,155,10.0,10.0,37,0.00,,SKC,0.00,VWS V14.01,2013-07-29 19:50:00,
2013-07-29 14:54:00,93.5,62.6,29.87,SE,143,7.0,14.0,36,0.00,,SKC,0.00,VWS V14.01,2013-07-29 19:54:00,
2013-07-29 14:59:00,93.5,62.6,29.88,SSE,147,14.0,18.0,36,0.00,,SKC,0.00,VWS V14.01,2013-07-29 19:59:00,
2013-07-29 15:05:00,93.3,62.4,29.88,SSE,163,11.0,14.0,36,0.00,,SKC,0.00,VWS V14.01,2013-07-29 20:05:00,
2013-07-29 15:10:00,93.3,63.2,29.87,SSE,165,17.0,17.0,37,0.00,,SKC,0.00,VWS V14.01,2013-07-29 20:10:00,
2013-07-29 15:15:00,93.0,62.1,29.88,SSE,168,13.0,13.0,36,0.00,,SKC,0.00,VWS V14.01,2013-07-29 20:15:00,
2013-07-29 15:20:00,93.4,60.9,29.87,South,190,7.0,13.0,34,0.00,,SKC,0.00,VWS V14.01,2013-07-29 20:20:00,
2013-07-29 15:25:00,93.4,60.9,29.87,South,176,16.0,19.0,34,0.00,,SKC,0.00,VWS V14.01,2013-07-29 20:25:00,
2013-07-29 15:30:00,93.7,61.1,29.87,South,176,5.0,9.0,34,0.00,,SKC,0.00,VWS V14.01,2013-07-29 20:30:00,
2013-07-29 15:35:00,94.1,61.5,29.86,SSE,149,10.0,15.0,34,0.00,,SKC,0.00,VWS V14.01,2013-07-29 20:35:00,
2013-07-29 15:41:00,94.2,60.7,29.86,SSE,164,14.0,17.0,33,0.00,,SKC,0.00,VWS V14.01,2013-07-29 20:41:00,
2013-07-29 15:46:00,94.3,61.7,29.87,SSW,194,15.0,15.0,34,0.00,,SKC,0.00,VWS V14.01,2013-07-29 20:46:00,
2013-07-29 15:51:00,94.0,61.4,29.86,South,175,12.0,13.0,34,0.00,,SKC,0.00,VWS V14.01,2013-07-29 20:51:00,
2013-07-29 15:56:00,94.2,59.8,29.86,SSE,165,14.0,14.0,32,0.00,,SKC,0.00,VWS V14.01,2013-07-29 20:56:00,
2013-07-29 16:01:00,94.3,59.9,29.86,South,180,18.0,18.0,32,0.00,,SKC,0.00,VWS V14.01,2013-07-29 21:01:00,
2013-07-29 16:06:00,94.7,61.2,29.86,SSW,194,5.0,10.0,33,0.00,,SKC,0.00,VWS V14.01,2013-07-29 21:06:00,
2013-07-29 16:11:00,94.7,61.2,29.86,SE,132,6.0,10.0,33,0.00,,SKC,0.00,VWS V14.01,2013-07-29 21:11:00,
2013-07-29 16:16:00,94.7,62.0,29.85,South,184,15.0,16.0,34,0.00,,SKC,0.00,VWS V14.01,2013-07-29 21:16:00,
2013-07-29 16:22:00,94.4,60.9,29.85,SE,132,12.0,18.0,33,0.00,,SKC,0.00,VWS V14.01,2013-07-29 21:22:00,
2013-07-29 16:27:00,94.5,61.8,29.85,SSE,156,11.0,14.0,34,0.00,,SKC,0.00,VWS V14.01,2013-07-29 21:27:00,
2013-07-29 16:32:00,94.8,61.2,29.85,South,173,11.0,14.0,33,0.00,,SKC,0.00,VWS V14.01,2013-07-29 21:32:00,
2013-07-29 16:37:00,95.0,60.5,29.85,SSE,163,10.0,19.0,32,0.00,,SKC,0.00,VWS V14.01,2013-07-29 21:37:00,
2013-07-29 16:42:00,95.0,60.5,29.85,South,188,10.0,11.0,32,0.00,,SKC,0.00,VWS V14.01,2013-07-29 21:42:00,
2013-07-29 16:47:00,94.9,60.5,29.85,SSE,152,12.0,13.0,32,0.00,,SKC,0.00,VWS V14.01,2013-07-29 21:47:00,
2013-07-29 16:52:00,95.0,60.5,29.85,South,187,7.0,18.0,32,0.00,,SKC,0.00,VWS V14.01,2013-07-29 21:52:00,
2013-07-29 16:57:00,94.6,61.1,29.85,SSE,159,16.0,18.0,33,0.00,,SKC,0.00,VWS V14.01,2013-07-29 21:57:00,
2013-07-29 17:02:00,94.1,58.9,29.85,South,173,12.0,19.0,31,0.00,,SKC,0.00,VWS V14.01,2013-07-29 22:02:00,
2013-07-29 17:07:00,94.2,59.0,29.85,South,169,12.0,17.0,31,0.00,,SKC,0.00,VWS V14.01,2013-07-29 22:07:00,
2013-07-29 17:12:00,94.3,59.0,29.85,SE,141,15.0,16.0,31,0.00,,SKC,0.00,VWS V14.01,2013-07-29 22:12:00,
2013-07-29 17:17:00,94.4,60.0,29.85,SE,135,10.0,16.0,32,0.00,,SKC,0.00,VWS V14.01,2013-07-29 22:17:00,
2013-07-29 17:23:00,94.4,60.0,29.85,South,188,4.0,13.0,32,0.00,,SKC,0.00,VWS V14.01,2013-07-29 22:23:00,
2013-07-29 17:28:00,94.2,59.0,29.85,SSW,203,15.0,27.0,31,0.00,,SKC,0.00,VWS V14.01,2013-07-29 22:28:00,
2013-07-29 17:33:00,93.9,60.5,29.85,SSW,196,9.0,9.0,33,0.00,,SKC,0.00,VWS V14.01,2013-07-29 22:33:00,
2013-07-29 17:38:00,93.9,60.5,29.85,SSE,150,6.0,8.0,33,0.00,,SKC,0.00,VWS V14.01,2013-07-29 22:38:00,
2013-07-29 17:43:00,94.1,60.6,29.85,SSE,167,5.0,15.0,33,0.00,,SKC,0.00,VWS V14.01,2013-07-29 22:43:00,
2013-07-29 17:48:00,93.8,61.2,29.85,SSE,164,10.0,15.0,34,0.00,,SKC,0.00,VWS V14.01,2013-07-29 22:48:00,
2013-07-29 17:53:00,93.7,61.1,29.85,SSW,192,11.0,15.0,34,0.00,,SKC,0.00,VWS V14.01,2013-07-29 22:53:00,
2013-07-29 17:58:00,93.8,61.2,29.84,SSE,167,14.0,15.0,34,0.00,,SKC,0.00,VWS V14.01,2013-07-29 22:58:00,
2013-07-29 18:03:00,93.3,60.8,29.84,SE,136,4.0,11.0,34,0.00,,SKC,0.00,VWS V14.01,2013-07-29 23:03:00,
2013-07-29 18:08:00,93.6,61.0,29.84,SSE,168,13.0,18.0,34,0.00,,SKC,0.00,VWS V14.01,2013-07-29 23:08:00,
2013-07-29 18:13:00,93.4,61.7,29.84,SSE,162,12.0,15.0,35,0.00,,SKC,0.00,VWS V14.01,2013-07-29 23:13:00,
2013-07-29 18:18:00,93.3,61.6,29.84,South,171,16.0,22.0,35,0.00,,SKC,0.00,VWS V14.01,2013-07-29 23:18:00,
2013-07-29 18:23:00,92.9,61.2,29.84,South,172,6.0,12.0,35,0.00,,SKC,0.00,VWS V14.01,2013-07-29 23:23:00,
2013-07-29 18:28:00,92.8,61.2,29.84,SSE,165,10.0,19.0,35,0.00,,SKC,0.00,VWS V14.01,2013-07-29 23:28:00,
2013-07-29 18:33:00,92.7,61.9,29.84,South,189,8.0,13.0,36,0.00,,SKC,0.00,VWS V14.01,2013-07-29 23:33:00,
2013-07-29 18:38:00,92.7,61.9,29.84,South,171,10.0,17.0,36,0.00,,SKC,0.00,VWS V14.01,2013-07-29 23:38:00,
2013-07-29 18:43:00,92.6,62.5,29.84,South,171,15.0,17.0,37,0.00,,SKC,0.00,VWS V14.01,2013-07-29 23:43:00,
2013-07-29 18:49:00,92.4,61.6,29.84,SSE,162,16.0,18.0,36,0.00,,SKC,0.00,VWS V14.01,2013-07-29 23:49:00,
2013-07-29 18:54:00,92.4,62.4,29.84,SE,142,14.0,20.0,37,0.00,,SKC,0.00,VWS V14.01,2013-07-29 23:54:00,
2013-07-29 18:59:00,91.9,61.9,29.84,SE,138,12.0,15.0,37,0.00,,SKC,0.00,VWS V14.01,2013-07-29 23:59:00,
2013-07-29 19:04:00,91.7,62.5,29.84,SE,146,7.0,7.0,38,0.00,,SKC,0.00,VWS V14.01,2013-07-30 00:04:00,
2013-07-29 19:09:00,91.5,61.6,29.84,SE,144,11.0,15.0,37,0.00,,SKC,0.00,VWS V14.01,2013-07-30 00:09:00,
2013-07-29 19:14:00,91.4,61.5,29.84,SE,132,11.0,13.0,37,0.00,,SKC,0.00,VWS V14.01,2013-07-30 00:14:00,
2013-07-29 19:19:00,91.1,62.0,29.85,SSW,198,18.0,18.0,38,0.00,,SKC,0.00,VWS V14.01,2013-07-30 00:19:00,
2013-07-29 19:24:00,90.8,61.7,29.85,South,177,16.0,19.0,38,0.00,,SKC,0.00,VWS V14.01,2013-07-30 00:24:00,
2013-07-29 19:29:00,90.8,61.7,29.85,SSE,148,9.0,13.0,38,0.00,,SKC,0.00,VWS V14.01,2013-07-30 00:29:00,
2013-07-29 19:34:00,90.7,61.6,29.85,South,183,12.0,13.0,38,0.00,,SKC,0.00,VWS V14.01,2013-07-30 00:34:00,
2013-07-29 19:39:00,90.5,61.5,29.85,South,169,5.0,10.0,38,0.00,,SKC,0.00,VWS V14.01,2013-07-30 00:39:00,
2013-07-29 19:44:00,90.3,62.0,29.85,SSW,195,11.0,11.0,39,0.00,,SKC,0.00,VWS V14.01,2013-07-30 00:44:00,
2013-07-29 19:49:00,90.0,61.7,29.85,South,182,11.0,15.0,39,0.00,,SKC,0.00,VWS V14.01,2013-07-30 00:49:00,
2013-07-29 19:54:00,89.7,61.5,29.86,SSE,163,15.0,18.0,39,0.00,,SKC,0.00,VWS V14.01,2013-07-30 00:54:00,
2013-07-29 19:59:00,89.6,61.4,29.86,SSE,159,13.0,16.0,39,0.00,,SKC,0.00,VWS V14.01,2013-07-30 00:59:00,
2013-07-29 20:04:00,89.4,61.9,29.86,SSE,161,5.0,11.0,40,0.00,,SKC,0.00,VWS V14.01,2013-07-30 01:04:00,
2013-07-29 20:09:00,89.1,61.7,29.87,SSW,194,6.0,13.0,40,0.00,,SKC,0.00,VWS V14.01,2013-07-30 01:09:00,
2013-07-29 20:14:00,89.0,62.3,29.87,SSE,150,6.0,11.0,41,0.00,,SKC,0.00,VWS V14.01,2013-07-30 01:14:00,
2013-07-29 20:19:00,88.7,62.0,29.87,South,174,9.0,12.0,41,0.00,,SKC,0.00,VWS V14.01,2013-07-30 01:19:00,
2013-07-29 20:24:00,88.4,61.7,29.87,South,179,7.0,16.0,41,0.00,,SKC,0.00,VWS V14.01,2013-07-30 01:24:00,
2013-07-29 20:29:00,88.3,62.3,29.87,SSE,165,5.0,10.0,42,0.00,,SKC,0.00,VWS V14.01,2013-07-30 01:29:00,
2013-07-29 20:34:00,88.1,62.8,29.87,South,173,9.0,13.0,43,0.00,,SKC,0.00,VWS V14.01,2013-07-30 01:34:00,
2013-07-29 20:39:00,87.9,62.6,29.88,SSE,160,6.0,9.0,43,0.00,,SKC,0.00,VWS V14.01,2013-07-30 01:39:00,
2013-07-29 20:44:00,87.7,62.5,29.88,South,174,7.0,12.0,43,0.00,,SKC,0.00,VWS V14.01,2013-07-30 01:44:00,
2013-07-29 20:49:00,87.5,62.9,29.88,SSE,155,7.0,12.0,44,0.00,,SKC,0.00,VWS V14.01,2013-07-30 01:49:00,
2013-07-29 20:54:00,87.2,62.7,29.88,SSE,151,7.0,9.0,44,0.00,,SKC,0.00,VWS V14.01,2013-07-30 01:54:00,
2013-07-29 21:02:00,86.9,63.7,29.89,SE,143,9.0,12.0,46,0.00,,SKC,0.00,VWS V14.01,2013-07-30 02:02:00,
2013-07-29 21:07:00,86.7,64.1,29.88,SE,142,3.0,3.0,47,0.00,,SKC,0.00,VWS V14.01,2013-07-30 02:07:00,
2013-07-29 21:12:00,86.4,65.6,29.89,SSE,167,11.0,14.0,50,0.00,,SKC,0.00,VWS V14.01,2013-07-30 02:12:00,
2013-07-29 21:17:00,86.1,66.4,29.89,SSE,159,9.0,9.0,52,0.00,,SKC,0.00,VWS V14.01,2013-07-30 02:17:00,
2013-07-29 21:22:00,85.8,66.7,29.90,SSE,165,5.0,7.0,53,0.00,,SKC,0.00,VWS V14.01,2013-07-30 02:22:00,
2013-07-29 21:27:00,85.6,67.6,29.90,SSE,148,10.0,15.0,55,0.00,,SKC,0.00,VWS V14.01,2013-07-30 02:27:00,
2013-07-29 21:32:00,85.3,67.8,29.90,South,175,6.0,14.0,56,0.00,,SKC,0.00,VWS V14.01,2013-07-30 02:32:00,
2013-07-29 21:37:00,85.1,68.2,29.90,South,181,7.0,11.0,57,0.00,,SKC,0.00,VWS V14.01,2013-07-30 02:37:00,
2013-07-29 21:42:00,84.8,67.9,29.91,SSE,156,4.0,12.0,57,0.00,,SKC,0.00,VWS V14.01,2013-07-30 02:42:00,
2013-07-29 21:47:00,84.6,68.2,29.91,SSE,155,6.0,9.0,58,0.00,,SKC,0.00,VWS V14.01,2013-07-30 02:47:00,
2013-07-29 21:52:00,84.3,68.4,29.91,SSE,163,5.0,6.0,59,0.00,,SKC,0.00,VWS V14.01,2013-07-30 02:52:00,
2013-07-29 21:57:00,84.1,69.2,29.91,South,180,9.0,13.0,61,0.00,,SKC,0.00,VWS V14.01,2013-07-30 02:57:00,
2013-07-29 22:02:00,83.9,69.0,29.91,South,182,15.0,15.0,61,0.00,,SKC,0.00,VWS V14.01,2013-07-30 03:02:00,
2013-07-29 22:07:00,83.7,69.3,29.91,SSE,164,5.0,12.0,62,0.00,,SKC,0.00,VWS V14.01,2013-07-30 03:07:00,
2013-07-29 22:12:00,83.4,69.0,29.91,SE,143,8.0,11.0,62,0.00,,SKC,0.00,VWS V14.01,2013-07-30 03:12:00,
2013-07-29 22:18:00,83.2,69.3,29.91,South,175,9.0,12.0,63,0.00,,SKC,0.00,VWS V14.01,2013-07-30 03:18:00,
2013-07-29 22:23:00,82.9,69.5,29.90,South,185,11.0,11.0,64,0.00,,SKC,0.00,VWS V14.01,2013-07-30 03:23:00,
2013-07-29 22:28:00,82.7,69.8,29.90,South,179,11.0,14.0,65,0.00,,SKC,0.00,VWS V14.01,2013-07-30 03:28:00,
2013-07-29 22:33:00,82.5,69.6,29.90,South,181,10.0,10.0,65,0.00,,SKC,0.00,VWS V14.01,2013-07-30 03:33:00,
2013-07-29 22:38:00,82.2,69.7,29.90,SSE,160,9.0,10.0,66,0.00,,SKC,0.00,VWS V14.01,2013-07-30 03:38:00,
2013-07-29 22:43:00,82.0,69.5,29.90,SSE,153,10.0,15.0,66,0.00,,SKC,0.00,VWS V14.01,2013-07-30 03:43:00,
2013-07-29 22:48:00,81.9,69.9,29.90,SSE,165,9.0,12.0,67,0.00,,SKC,0.00,VWS V14.01,2013-07-30 03:48:00,
2013-07-29 22:53:00,81.7,70.1,29.90,SSW,196,11.0,13.0,68,0.00,,SKC,0.00,VWS V14.01,2013-07-30 03:53:00,
2013-07-29 22:58:00,81.5,69.9,29.90,South,178,9.0,18.0,68,0.00,,SKC,0.00,VWS V14.01,2013-07-30 03:58:00,
2013-07-29 23:01:00,81.4,70.3,29.90,SSE,147,10.0,13.0,69,0.00,,SKC,0.00,VWS V14.01,2013-07-30 04:01:00,
2013-07-29 23:02:00,81.3,70.2,29.90,South,175,11.0,19.0,69,0.00,,SKC,0.00,VWS V14.01,2013-07-30 04:02:00,
2013-07-29 23:07:00,81.2,70.1,29.90,South,173,10.0,11.0,69,0.00,,SKC,0.00,VWS V14.01,2013-07-30 04:07:00,
2013-07-29 23:12:00,81.0,70.3,29.90,South,178,23.0,23.0,70,0.00,,SKC,0.00,VWS V14.01,2013-07-30 04:12:00,
2013-07-29 23:17:00,80.8,70.1,29.91,SSW,207,10.0,14.0,70,0.00,,SKC,0.00,VWS V14.01,2013-07-30 04:17:00,
2013-07-29 23:22:00,80.6,70.3,29.91,SSE,168,12.0,13.0,71,0.00,,SKC,0.00,VWS V14.01,2013-07-30 04:22:00,
2013-07-29 23:27:00,80.4,70.1,29.91,SSE,156,6.0,9.0,71,0.00,,SKC,0.00,VWS V14.01,2013-07-30 04:27:00,
2013-07-29 23:32:00,80.2,69.9,29.91,SE,137,6.0,6.0,71,0.00,,SKC,0.00,VWS V14.01,2013-07-30 04:32:00,
2013-07-29 23:37:00,80.0,70.2,29.91,SSE,148,11.0,14.0,72,0.00,,SKC,0.00,VWS V14.01,2013-07-30 04:37:00,
2013-07-29 23:42:00,79.9,70.1,29.91,SSE,163,7.0,13.0,72,0.00,,SKC,0.00,VWS V14.01,2013-07-30 04:42:00,
2013-07-29 23:47:00,79.7,69.9,29.91,SSW,196,6.0,12.0,72,0.00,,SKC,0.00,VWS V14.01,2013-07-30 04:47:00,
2013-07-29 23:52:00,79.6,69.8,29.91,South,173,17.0,17.0,72,0.00,,SKC,0.00,VWS V14.01,2013-07-30 04:52:00,
2013-07-29 23:57:00,79.4,69.6,29.92,SSE,165,7.0,15.0,72,0.00,,SKC,0.00,VWS V14.01,2013-07-30 04:57:00,